sensor_id;sensor_type;location;lat;lon;timestamp;P1;durP1;ratioP1;P2;durP2;ratioP2
7817;SDS011;3954;52.624;9.212;2023-04-03T00:02:04;6.07;;;2.73;;
7817;SDS011;3954;52.624;9.212;2023-04-03T00:04:30;4.87;;;2.10;;
7817;SDS011;3954;52.624;9.212;2023-04-03T00:06:56;3.30;;;2.03;;
7817;SDS011;3954;52.624;9.212;2023-04-03T00:09:22;3.50;;;2.20;;
7817;SDS011;3954;52.624;9.212;2023-04-03T00:11:49;3.17;;;1.93;;
7817;SDS011;3954;52.624;9.212;2023-04-03T00:14:15;3.57;;;1.73;;
7817;SDS011;3954;52.624;9.212;2023-04-03T00:16:41;3.23;;;2.07;;
7817;SDS011;3954;52.624;9.212;2023-04-03T00:19:07;3.47;;;2.10;;
7817;SDS011;3954;52.624;9.212;2023-04-03T00:21:36;2.30;;;1.73;;
7817;SDS011;3954;52.624;9.212;2023-04-03T00:24:02;3.67;;;1.70;;
7817;SDS011;3954;52.624;9.212;2023-04-03T00:26:28;4.33;;;1.90;;
7817;SDS011;3954;52.624;9.212;2023-04-03T00:28:56;3.27;;;1.80;;
7817;SDS011;3954;52.624;9.212;2023-04-03T00:31:22;3.33;;;1.80;;
7817;SDS011;3954;52.624;9.212;2023-04-03T00:33:48;2.73;;;1.77;;
7817;SDS011;3954;52.624;9.212;2023-04-03T00:36:14;5.13;;;1.67;;
7817;SDS011;3954;52.624;9.212;2023-04-03T00:38:40;5.20;;;2.10;;
7817;SDS011;3954;52.624;9.212;2023-04-03T00:41:07;4.03;;;1.80;;
7817;SDS011;3954;52.624;9.212;2023-04-03T00:43:33;2.30;;;1.70;;
7817;SDS011;3954;52.624;9.212;2023-04-03T00:46:00;4.87;;;1.83;;
7817;SDS011;3954;52.624;9.212;2023-04-03T00:48:28;3.80;;;1.93;;
7817;SDS011;3954;52.624;9.212;2023-04-03T00:50:54;3.23;;;1.87;;
7817;SDS011;3954;52.624;9.212;2023-04-03T00:53:21;2.80;;;1.90;;
7817;SDS011;3954;52.624;9.212;2023-04-03T00:55:48;3.10;;;1.90;;
7817;SDS011;3954;52.624;9.212;2023-04-03T00:58:15;3.93;;;2.00;;
7817;SDS011;3954;52.624;9.212;2023-04-03T01:00:42;9.23;;;2.00;;
7817;SDS011;3954;52.624;9.212;2023-04-03T01:03:13;3.40;;;2.17;;
7817;SDS011;3954;52.624;9.212;2023-04-03T01:05:39;3.63;;;1.97;;
7817;SDS011;3954;52.624;9.212;2023-04-03T01:08:05;3.00;;;1.90;;
7817;SDS011;3954;52.624;9.212;2023-04-03T01:10:31;2.90;;;1.83;;
7817;SDS011;3954;52.624;9.212;2023-04-03T01:12:57;2.00;;;1.83;;
7817;SDS011;3954;52.624;9.212;2023-04-03T01:15:26;4.03;;;1.80;;
7817;SDS011;3954;52.624;9.212;2023-04-03T01:17:56;2.40;;;1.70;;
7817;SDS011;3954;52.624;9.212;2023-04-03T01:20:37;3.00;;;1.77;;
7817;SDS011;3954;52.624;9.212;2023-04-03T01:23:14;6.80;;;2.20;;
7817;SDS011;3954;52.624;9.212;2023-04-03T01:25:44;4.30;;;1.90;;
7817;SDS011;3954;52.624;9.212;2023-04-03T01:28:11;3.67;;;2.07;;
7817;SDS011;3954;52.624;9.212;2023-04-03T01:30:39;2.60;;;1.80;;
7817;SDS011;3954;52.624;9.212;2023-04-03T01:33:08;5.13;;;1.83;;
7817;SDS011;3954;52.624;9.212;2023-04-03T01:35:34;3.77;;;1.97;;
7817;SDS011;3954;52.624;9.212;2023-04-03T01:38:00;3.40;;;2.00;;
7817;SDS011;3954;52.624;9.212;2023-04-03T01:40:26;4.10;;;2.03;;
7817;SDS011;3954;52.624;9.212;2023-04-03T01:42:52;3.20;;;1.93;;
7817;SDS011;3954;52.624;9.212;2023-04-03T01:45:18;2.70;;;1.70;;
7817;SDS011;3954;52.624;9.212;2023-04-03T01:47:44;5.20;;;2.10;;
7817;SDS011;3954;52.624;9.212;2023-04-03T01:50:12;2.77;;;1.50;;
7817;SDS011;3954;52.624;9.212;2023-04-03T01:52:38;2.73;;;1.90;;
7817;SDS011;3954;52.624;9.212;2023-04-03T01:55:04;4.20;;;1.83;;
7817;SDS011;3954;52.624;9.212;2023-04-03T01:57:30;3.37;;;1.77;;
7817;SDS011;3954;52.624;9.212;2023-04-03T01:59:56;2.73;;;1.70;;
7817;SDS011;3954;52.624;9.212;2023-04-03T02:02:22;6.73;;;2.80;;
7817;SDS011;3954;52.624;9.212;2023-04-03T02:04:49;3.47;;;1.97;;
7817;SDS011;3954;52.624;9.212;2023-04-03T02:07:16;5.17;;;2.50;;
7817;SDS011;3954;52.624;9.212;2023-04-03T02:09:42;3.67;;;2.30;;
7817;SDS011;3954;52.624;9.212;2023-04-03T02:12:08;3.67;;;2.07;;
7817;SDS011;3954;52.624;9.212;2023-04-03T02:14:34;3.97;;;2.20;;
7817;SDS011;3954;52.624;9.212;2023-04-03T02:17:00;4.00;;;2.03;;
7817;SDS011;3954;52.624;9.212;2023-04-03T02:19:29;4.07;;;2.07;;
7817;SDS011;3954;52.624;9.212;2023-04-03T02:21:55;4.03;;;1.57;;
7817;SDS011;3954;52.624;9.212;2023-04-03T02:24:23;3.60;;;1.90;;
7817;SDS011;3954;52.624;9.212;2023-04-03T02:26:49;6.33;;;2.17;;
7817;SDS011;3954;52.624;9.212;2023-04-03T02:29:15;3.53;;;1.80;;
7817;SDS011;3954;52.624;9.212;2023-04-03T02:31:41;3.70;;;1.93;;
7817;SDS011;3954;52.624;9.212;2023-04-03T02:34:07;4.07;;;1.90;;
7817;SDS011;3954;52.624;9.212;2023-04-03T02:36:33;3.53;;;1.90;;
7817;SDS011;3954;52.624;9.212;2023-04-03T02:38:59;1.97;;;1.77;;
7817;SDS011;3954;52.624;9.212;2023-04-03T02:41:26;3.60;;;2.00;;
7817;SDS011;3954;52.624;9.212;2023-04-03T02:43:58;5.03;;;2.03;;
7817;SDS011;3954;52.624;9.212;2023-04-03T02:46:24;4.47;;;2.23;;
7817;SDS011;3954;52.624;9.212;2023-04-03T02:48:50;2.37;;;1.90;;
7817;SDS011;3954;52.624;9.212;2023-04-03T02:51:16;2.20;;;1.73;;
7817;SDS011;3954;52.624;9.212;2023-04-03T02:53:42;4.70;;;1.93;;
7817;SDS011;3954;52.624;9.212;2023-04-03T02:56:08;3.90;;;1.67;;
7817;SDS011;3954;52.624;9.212;2023-04-03T02:58:36;5.53;;;2.00;;
7817;SDS011;3954;52.624;9.212;2023-04-03T03:01:02;3.60;;;1.70;;
7817;SDS011;3954;52.624;9.212;2023-04-03T03:03:28;3.10;;;2.10;;
7817;SDS011;3954;52.624;9.212;2023-04-03T03:06:00;4.83;;;2.10;;
7817;SDS011;3954;52.624;9.212;2023-04-03T03:08:26;4.27;;;1.93;;
7817;SDS011;3954;52.624;9.212;2023-04-03T03:10:52;3.03;;;1.80;;
7817;SDS011;3954;52.624;9.212;2023-04-03T03:13:18;5.70;;;1.97;;
7817;SDS011;3954;52.624;9.212;2023-04-03T03:15:46;3.30;;;1.60;;
7817;SDS011;3954;52.624;9.212;2023-04-03T03:18:12;3.03;;;1.70;;
7817;SDS011;3954;52.624;9.212;2023-04-03T03:20:38;3.17;;;1.80;;
7817;SDS011;3954;52.624;9.212;2023-04-03T03:23:04;4.17;;;1.80;;
7817;SDS011;3954;52.624;9.212;2023-04-03T03:25:30;3.17;;;2.10;;
7817;SDS011;3954;52.624;9.212;2023-04-03T03:27:56;6.73;;;2.30;;
7817;SDS011;3954;52.624;9.212;2023-04-03T03:30:22;3.07;;;2.00;;
7817;SDS011;3954;52.624;9.212;2023-04-03T03:32:49;4.17;;;1.70;;
7817;SDS011;3954;52.624;9.212;2023-04-03T03:35:15;3.00;;;1.80;;
7817;SDS011;3954;52.624;9.212;2023-04-03T03:37:41;3.10;;;1.77;;
7817;SDS011;3954;52.624;9.212;2023-04-03T03:40:08;1.97;;;1.70;;
7817;SDS011;3954;52.624;9.212;2023-04-03T03:42:36;3.77;;;1.97;;
7817;SDS011;3954;52.624;9.212;2023-04-03T03:45:02;3.47;;;1.77;;
7817;SDS011;3954;52.624;9.212;2023-04-03T03:47:28;4.57;;;2.00;;
7817;SDS011;3954;52.624;9.212;2023-04-03T03:49:56;3.20;;;1.80;;
7817;SDS011;3954;52.624;9.212;2023-04-03T03:52:22;4.53;;;2.00;;
7817;SDS011;3954;52.624;9.212;2023-04-03T03:54:48;3.47;;;1.90;;
7817;SDS011;3954;52.624;9.212;2023-04-03T03:57:14;2.80;;;1.80;;
7817;SDS011;3954;52.624;9.212;2023-04-03T03:59:40;7.47;;;2.43;;
7817;SDS011;3954;52.624;9.212;2023-04-03T04:02:06;2.47;;;1.80;;
7817;SDS011;3954;52.624;9.212;2023-04-03T04:04:33;4.57;;;1.97;;
7817;SDS011;3954;52.624;9.212;2023-04-03T04:07:00;3.70;;;2.20;;
7817;SDS011;3954;52.624;9.212;2023-04-03T04:09:26;4.20;;;2.17;;
7817;SDS011;3954;52.624;9.212;2023-04-03T04:11:52;4.50;;;2.00;;
7817;SDS011;3954;52.624;9.212;2023-04-03T04:14:18;3.97;;;2.13;;
7817;SDS011;3954;52.624;9.212;2023-04-03T04:16:47;3.57;;;1.90;;
7817;SDS011;3954;52.624;9.212;2023-04-03T04:19:13;3.60;;;1.87;;
7817;SDS011;3954;52.624;9.212;2023-04-03T04:21:39;2.70;;;1.87;;
7817;SDS011;3954;52.624;9.212;2023-04-03T04:24:08;3.40;;;1.93;;
7817;SDS011;3954;52.624;9.212;2023-04-03T04:26:34;3.50;;;1.80;;
7817;SDS011;3954;52.624;9.212;2023-04-03T04:29:00;5.63;;;2.30;;
7817;SDS011;3954;52.624;9.212;2023-04-03T04:31:26;3.90;;;2.17;;
7817;SDS011;3954;52.624;9.212;2023-04-03T04:33:52;5.23;;;2.20;;
7817;SDS011;3954;52.624;9.212;2023-04-03T04:36:18;3.53;;;1.87;;
7817;SDS011;3954;52.624;9.212;2023-04-03T04:38:45;3.57;;;1.90;;
7817;SDS011;3954;52.624;9.212;2023-04-03T04:41:12;3.50;;;1.83;;
7817;SDS011;3954;52.624;9.212;2023-04-03T04:43:38;3.53;;;2.13;;
7817;SDS011;3954;52.624;9.212;2023-04-03T04:46:05;2.70;;;1.73;;
7817;SDS011;3954;52.624;9.212;2023-04-03T04:48:31;3.10;;;2.00;;
7817;SDS011;3954;52.624;9.212;2023-04-03T04:50:58;4.87;;;2.13;;
7817;SDS011;3954;52.624;9.212;2023-04-03T04:53:24;3.77;;;1.73;;
7817;SDS011;3954;52.624;9.212;2023-04-03T04:55:50;6.23;;;1.93;;
7817;SDS011;3954;52.624;9.212;2023-04-03T04:58:18;4.17;;;1.77;;
7817;SDS011;3954;52.624;9.212;2023-04-03T05:00:44;4.80;;;2.40;;
7817;SDS011;3954;52.624;9.212;2023-04-03T05:03:10;5.03;;;2.00;;
7817;SDS011;3954;52.624;9.212;2023-04-03T05:05:37;3.13;;;2.10;;
7817;SDS011;3954;52.624;9.212;2023-04-03T05:08:03;5.10;;;2.07;;
7817;SDS011;3954;52.624;9.212;2023-04-03T05:10:28;5.13;;;2.00;;
7817;SDS011;3954;52.624;9.212;2023-04-03T05:12:54;5.67;;;1.80;;
7817;SDS011;3954;52.624;9.212;2023-04-03T05:15:22;4.00;;;1.90;;
7817;SDS011;3954;52.624;9.212;2023-04-03T05:17:48;3.57;;;1.90;;
7817;SDS011;3954;52.624;9.212;2023-04-03T05:20:15;3.33;;;2.00;;
7817;SDS011;3954;52.624;9.212;2023-04-03T05:22:41;4.60;;;2.10;;
7817;SDS011;3954;52.624;9.212;2023-04-03T05:25:07;5.67;;;2.17;;
7817;SDS011;3954;52.624;9.212;2023-04-03T05:27:33;5.30;;;2.33;;
7817;SDS011;3954;52.624;9.212;2023-04-03T05:29:59;2.33;;;1.90;;
7817;SDS011;3954;52.624;9.212;2023-04-03T05:32:27;4.77;;;2.30;;
7817;SDS011;3954;52.624;9.212;2023-04-03T05:34:53;3.53;;;2.13;;
7817;SDS011;3954;52.624;9.212;2023-04-03T05:37:19;4.43;;;1.87;;
7817;SDS011;3954;52.624;9.212;2023-04-03T05:39:45;4.07;;;1.90;;
7817;SDS011;3954;52.624;9.212;2023-04-03T05:42:12;3.17;;;2.23;;
7817;SDS011;3954;52.624;9.212;2023-04-03T05:44:39;4.67;;;2.10;;
7817;SDS011;3954;52.624;9.212;2023-04-03T05:47:05;2.77;;;1.93;;
7817;SDS011;3954;52.624;9.212;2023-04-03T05:49:33;2.80;;;1.70;;
7817;SDS011;3954;52.624;9.212;2023-04-03T05:51:59;3.43;;;2.30;;
7817;SDS011;3954;52.624;9.212;2023-04-03T05:54:25;3.63;;;2.20;;
7817;SDS011;3954;52.624;9.212;2023-04-03T05:56:52;3.37;;;2.17;;
7817;SDS011;3954;52.624;9.212;2023-04-03T05:59:19;4.73;;;1.90;;
7817;SDS011;3954;52.624;9.212;2023-04-03T06:01:45;3.60;;;2.00;;
7817;SDS011;3954;52.624;9.212;2023-04-03T06:04:11;5.73;;;2.53;;
7817;SDS011;3954;52.624;9.212;2023-04-03T06:06:46;4.67;;;2.13;;
7817;SDS011;3954;52.624;9.212;2023-04-03T06:09:13;5.83;;;2.30;;
7817;SDS011;3954;52.624;9.212;2023-04-03T06:11:39;5.30;;;2.10;;
7817;SDS011;3954;52.624;9.212;2023-04-03T06:14:06;6.33;;;2.73;;
7817;SDS011;3954;52.624;9.212;2023-04-03T06:16:33;2.93;;;1.97;;
7817;SDS011;3954;52.624;9.212;2023-04-03T06:18:59;4.10;;;1.90;;
7817;SDS011;3954;52.624;9.212;2023-04-03T06:21:25;4.23;;;1.97;;
7817;SDS011;3954;52.624;9.212;2023-04-03T06:23:52;3.73;;;1.80;;
7817;SDS011;3954;52.624;9.212;2023-04-03T06:26:18;4.03;;;2.07;;
7817;SDS011;3954;52.624;9.212;2023-04-03T06:28:45;4.50;;;1.90;;
7817;SDS011;3954;52.624;9.212;2023-04-03T06:31:11;5.13;;;2.83;;
7817;SDS011;3954;52.624;9.212;2023-04-03T06:33:37;4.57;;;1.83;;
7817;SDS011;3954;52.624;9.212;2023-04-03T06:36:04;2.77;;;2.07;;
7817;SDS011;3954;52.624;9.212;2023-04-03T06:38:30;4.80;;;1.53;;
7817;SDS011;3954;52.624;9.212;2023-04-03T06:40:57;4.80;;;1.97;;
7817;SDS011;3954;52.624;9.212;2023-04-03T06:43:23;2.57;;;1.80;;
7817;SDS011;3954;52.624;9.212;2023-04-03T06:45:49;3.57;;;1.80;;
7817;SDS011;3954;52.624;9.212;2023-04-03T06:48:15;2.33;;;1.53;;
7817;SDS011;3954;52.624;9.212;2023-04-03T06:50:41;4.93;;;1.97;;
7817;SDS011;3954;52.624;9.212;2023-04-03T06:53:08;6.50;;;1.80;;
7817;SDS011;3954;52.624;9.212;2023-04-03T06:55:34;3.17;;;2.37;;
7817;SDS011;3954;52.624;9.212;2023-04-03T06:58:02;5.37;;;2.00;;
7817;SDS011;3954;52.624;9.212;2023-04-03T07:00:28;3.50;;;1.80;;
7817;SDS011;3954;52.624;9.212;2023-04-03T07:02:55;2.77;;;1.60;;
7817;SDS011;3954;52.624;9.212;2023-04-03T07:05:22;4.53;;;1.90;;
7817;SDS011;3954;52.624;9.212;2023-04-03T07:07:48;2.20;;;1.60;;
7817;SDS011;3954;52.624;9.212;2023-04-03T07:10:15;2.20;;;1.60;;
7817;SDS011;3954;52.624;9.212;2023-04-03T07:12:41;4.13;;;1.73;;
7817;SDS011;3954;52.624;9.212;2023-04-03T07:15:09;3.37;;;1.97;;
7817;SDS011;3954;52.624;9.212;2023-04-03T07:17:35;3.20;;;1.50;;
7817;SDS011;3954;52.624;9.212;2023-04-03T07:20:01;4.03;;;1.70;;
7817;SDS011;3954;52.624;9.212;2023-04-03T07:22:28;2.57;;;1.90;;
7817;SDS011;3954;52.624;9.212;2023-04-03T07:24:54;3.77;;;1.80;;
7817;SDS011;3954;52.624;9.212;2023-04-03T07:27:20;4.10;;;2.03;;
7817;SDS011;3954;52.624;9.212;2023-04-03T07:29:46;3.73;;;1.83;;
7817;SDS011;3954;52.624;9.212;2023-04-03T07:32:14;2.47;;;1.60;;
7817;SDS011;3954;52.624;9.212;2023-04-03T07:34:41;2.67;;;1.50;;
7817;SDS011;3954;52.624;9.212;2023-04-03T07:37:07;3.57;;;1.63;;
7817;SDS011;3954;52.624;9.212;2023-04-03T07:39:34;2.97;;;1.57;;
7817;SDS011;3954;52.624;9.212;2023-04-03T07:42:00;3.23;;;1.70;;
7817;SDS011;3954;52.624;9.212;2023-04-03T07:44:26;2.33;;;1.50;;
7817;SDS011;3954;52.624;9.212;2023-04-03T07:46:53;2.73;;;1.53;;
7817;SDS011;3954;52.624;9.212;2023-04-03T07:49:22;3.30;;;1.50;;
7817;SDS011;3954;52.624;9.212;2023-04-03T07:51:49;4.17;;;1.60;;
7817;SDS011;3954;52.624;9.212;2023-04-03T07:54:15;2.97;;;1.60;;
7817;SDS011;3954;52.624;9.212;2023-04-03T07:56:41;4.67;;;1.50;;
7817;SDS011;3954;52.624;9.212;2023-04-03T07:59:08;2.47;;;1.50;;
7817;SDS011;3954;52.624;9.212;2023-04-03T08:01:34;3.00;;;1.53;;
7817;SDS011;3954;52.624;9.212;2023-04-03T08:04:00;3.37;;;1.40;;
7817;SDS011;3954;52.624;9.212;2023-04-03T08:06:27;3.03;;;1.40;;
7817;SDS011;3954;52.624;9.212;2023-04-03T08:08:59;4.10;;;1.60;;
7817;SDS011;3954;52.624;9.212;2023-04-03T08:11:25;1.10;;;1.10;;
7817;SDS011;3954;52.624;9.212;2023-04-03T08:13:51;3.43;;;1.40;;
7817;SDS011;3954;52.624;9.212;2023-04-03T08:16:18;2.80;;;1.40;;
7817;SDS011;3954;52.624;9.212;2023-04-03T08:18:46;3.13;;;1.40;;
7817;SDS011;3954;52.624;9.212;2023-04-03T08:21:12;1.60;;;1.40;;
7817;SDS011;3954;52.624;9.212;2023-04-03T08:23:40;1.80;;;1.40;;
7817;SDS011;3954;52.624;9.212;2023-04-03T08:26:07;3.20;;;1.20;;
7817;SDS011;3954;52.624;9.212;2023-04-03T08:28:33;3.00;;;1.47;;
7817;SDS011;3954;52.624;9.212;2023-04-03T08:31:02;2.27;;;1.40;;
7817;SDS011;3954;52.624;9.212;2023-04-03T08:33:29;4.00;;;1.30;;
7817;SDS011;3954;52.624;9.212;2023-04-03T08:35:55;2.07;;;1.67;;
7817;SDS011;3954;52.624;9.212;2023-04-03T08:38:21;2.63;;;1.20;;
7817;SDS011;3954;52.624;9.212;2023-04-03T08:40:49;2.50;;;1.47;;
7817;SDS011;3954;52.624;9.212;2023-04-03T08:43:27;1.90;;;1.13;;
7817;SDS011;3954;52.624;9.212;2023-04-03T08:45:56;2.33;;;1.30;;
7817;SDS011;3954;52.624;9.212;2023-04-03T08:48:25;4.17;;;1.57;;
7817;SDS011;3954;52.624;9.212;2023-04-03T08:50:53;3.07;;;1.23;;
7817;SDS011;3954;52.624;9.212;2023-04-03T08:53:20;2.43;;;1.30;;
7817;SDS011;3954;52.624;9.212;2023-04-03T08:55:49;5.40;;;1.47;;
7817;SDS011;3954;52.624;9.212;2023-04-03T08:58:16;1.90;;;1.30;;
7817;SDS011;3954;52.624;9.212;2023-04-03T09:00:44;1.90;;;1.30;;
7817;SDS011;3954;52.624;9.212;2023-04-03T09:03:11;2.93;;;1.30;;
7817;SDS011;3954;52.624;9.212;2023-04-03T09:05:39;2.70;;;1.30;;
7817;SDS011;3954;52.624;9.212;2023-04-03T09:08:11;2.37;;;1.50;;
7817;SDS011;3954;52.624;9.212;2023-04-03T09:10:37;4.27;;;1.40;;
7817;SDS011;3954;52.624;9.212;2023-04-03T09:13:08;3.77;;;1.47;;
7817;SDS011;3954;52.624;9.212;2023-04-03T09:15:37;3.03;;;1.80;;
7817;SDS011;3954;52.624;9.212;2023-04-03T09:18:04;2.53;;;1.80;;
7817;SDS011;3954;52.624;9.212;2023-04-03T09:20:35;3.23;;;1.40;;
7817;SDS011;3954;52.624;9.212;2023-04-03T09:23:09;3.63;;;1.40;;
7817;SDS011;3954;52.624;9.212;2023-04-03T09:25:36;2.83;;;1.40;;
7817;SDS011;3954;52.624;9.212;2023-04-03T09:28:03;2.73;;;1.43;;
7817;SDS011;3954;52.624;9.212;2023-04-03T09:30:36;3.03;;;1.40;;
7817;SDS011;3954;52.624;9.212;2023-04-03T09:33:03;5.17;;;1.93;;
7817;SDS011;3954;52.624;9.212;2023-04-03T09:35:30;2.30;;;1.50;;
7817;SDS011;3954;52.624;9.212;2023-04-03T09:37:58;2.37;;;1.20;;
7817;SDS011;3954;52.624;9.212;2023-04-03T09:40:32;2.33;;;1.37;;
7817;SDS011;3954;52.624;9.212;2023-04-03T09:43:00;2.17;;;1.30;;
7817;SDS011;3954;52.624;9.212;2023-04-03T09:45:27;2.40;;;1.10;;
7817;SDS011;3954;52.624;9.212;2023-04-03T09:48:08;1.07;;;0.93;;
7817;SDS011;3954;52.624;9.212;2023-04-03T09:50:35;1.80;;;1.23;;
7817;SDS011;3954;52.624;9.212;2023-04-03T09:53:04;1.73;;;1.30;;
7817;SDS011;3954;52.624;9.212;2023-04-03T09:55:32;1.97;;;1.00;;
7817;SDS011;3954;52.624;9.212;2023-04-03T09:57:58;2.47;;;1.40;;
7817;SDS011;3954;52.624;9.212;2023-04-03T10:00:25;2.53;;;1.30;;
7817;SDS011;3954;52.624;9.212;2023-04-03T10:02:53;4.37;;;1.30;;
7817;SDS011;3954;52.624;9.212;2023-04-03T10:05:27;2.17;;;1.20;;
7817;SDS011;3954;52.624;9.212;2023-04-03T10:07:54;1.97;;;1.20;;
7817;SDS011;3954;52.624;9.212;2023-04-03T10:10:32;3.17;;;1.40;;
7817;SDS011;3954;52.624;9.212;2023-04-03T10:13:05;2.03;;;1.20;;
7817;SDS011;3954;52.624;9.212;2023-04-03T10:15:32;1.43;;;1.03;;
7817;SDS011;3954;52.624;9.212;2023-04-03T10:18:02;1.73;;;0.90;;
7817;SDS011;3954;52.624;9.212;2023-04-03T10:20:32;2.70;;;1.20;;
7817;SDS011;3954;52.624;9.212;2023-04-03T10:23:05;2.23;;;1.27;;
7817;SDS011;3954;52.624;9.212;2023-04-03T10:25:35;3.47;;;1.23;;
7817;SDS011;3954;52.624;9.212;2023-04-03T10:28:03;2.07;;;1.13;;
7817;SDS011;3954;52.624;9.212;2023-04-03T10:30:32;1.53;;;1.30;;
7817;SDS011;3954;52.624;9.212;2023-04-03T10:33:04;3.33;;;1.30;;
7817;SDS011;3954;52.624;9.212;2023-04-03T10:35:39;2.57;;;1.13;;
7817;SDS011;3954;52.624;9.212;2023-04-03T10:38:08;3.00;;;1.43;;
7817;SDS011;3954;52.624;9.212;2023-04-03T10:40:38;2.70;;;1.03;;
7817;SDS011;3954;52.624;9.212;2023-04-03T10:43:13;2.47;;;1.33;;
7817;SDS011;3954;52.624;9.212;2023-04-03T10:45:47;2.23;;;1.30;;
7817;SDS011;3954;52.624;9.212;2023-04-03T10:48:16;2.27;;;1.37;;
7817;SDS011;3954;52.624;9.212;2023-04-03T10:50:47;2.80;;;1.37;;
7817;SDS011;3954;52.624;9.212;2023-04-03T10:53:19;1.77;;;1.10;;
7817;SDS011;3954;52.624;9.212;2023-04-03T10:55:48;1.87;;;1.30;;
7817;SDS011;3954;52.624;9.212;2023-04-03T10:58:18;1.43;;;1.00;;
7817;SDS011;3954;52.624;9.212;2023-04-03T11:00:47;2.20;;;1.20;;
7817;SDS011;3954;52.624;9.212;2023-04-03T11:03:14;2.23;;;1.30;;
7817;SDS011;3954;52.624;9.212;2023-04-03T11:05:43;1.33;;;1.10;;
7817;SDS011;3954;52.624;9.212;2023-04-03T11:08:13;1.33;;;1.10;;
7817;SDS011;3954;52.624;9.212;2023-04-03T11:10:44;1.33;;;1.20;;
7817;SDS011;3954;52.624;9.212;2023-04-03T11:13:11;1.97;;;1.40;;
7817;SDS011;3954;52.624;9.212;2023-04-03T11:15:38;2.00;;;1.50;;
7817;SDS011;3954;52.624;9.212;2023-04-03T11:18:06;2.47;;;1.20;;
7817;SDS011;3954;52.624;9.212;2023-04-03T11:20:35;1.47;;;1.00;;
7817;SDS011;3954;52.624;9.212;2023-04-03T11:23:03;3.27;;;1.10;;
7817;SDS011;3954;52.624;9.212;2023-04-03T11:25:31;2.70;;;1.30;;
7817;SDS011;3954;52.624;9.212;2023-04-03T11:27:59;1.77;;;1.20;;
7817;SDS011;3954;52.624;9.212;2023-04-03T11:30:27;2.60;;;1.47;;
7817;SDS011;3954;52.624;9.212;2023-04-03T11:33:00;3.00;;;1.60;;
7817;SDS011;3954;52.624;9.212;2023-04-03T11:35:29;1.77;;;1.20;;
7817;SDS011;3954;52.624;9.212;2023-04-03T11:37:56;2.90;;;1.20;;
7817;SDS011;3954;52.624;9.212;2023-04-03T11:40:24;1.60;;;1.30;;
7817;SDS011;3954;52.624;9.212;2023-04-03T11:42:53;1.07;;;0.97;;
7817;SDS011;3954;52.624;9.212;2023-04-03T11:45:29;2.90;;;0.83;;
7817;SDS011;3954;52.624;9.212;2023-04-03T11:47:58;1.77;;;1.07;;
7817;SDS011;3954;52.624;9.212;2023-04-03T11:50:30;2.37;;;1.10;;
7817;SDS011;3954;52.624;9.212;2023-04-03T11:52:58;2.33;;;1.20;;
7817;SDS011;3954;52.624;9.212;2023-04-03T11:58:13;1.87;;;0.93;;
7817;SDS011;3954;52.624;9.212;2023-04-03T12:00:47;1.87;;;1.30;;
7817;SDS011;3954;52.624;9.212;2023-04-03T12:09:19;2.30;;;1.23;;
7817;SDS011;3954;52.624;9.212;2023-04-03T12:11:48;1.70;;;1.20;;
7817;SDS011;3954;52.624;9.212;2023-04-03T12:14:16;1.90;;;1.17;;
7817;SDS011;3954;52.624;9.212;2023-04-03T12:16:42;2.10;;;1.30;;
7817;SDS011;3954;52.624;9.212;2023-04-03T12:22:08;2.30;;;1.57;;
7817;SDS011;3954;52.624;9.212;2023-04-03T12:24:35;1.50;;;1.20;;
7817;SDS011;3954;52.624;9.212;2023-04-03T12:27:02;1.53;;;1.23;;
7817;SDS011;3954;52.624;9.212;2023-04-03T12:29:33;1.33;;;1.10;;
7817;SDS011;3954;52.624;9.212;2023-04-03T12:32:06;1.97;;;1.20;;
7817;SDS011;3954;52.624;9.212;2023-04-03T12:34:42;3.50;;;1.20;;
7817;SDS011;3954;52.624;9.212;2023-04-03T12:37:15;3.83;;;2.00;;
7817;SDS011;3954;52.624;9.212;2023-04-03T12:39:51;2.80;;;1.40;;
7817;SDS011;3954;52.624;9.212;2023-04-03T12:42:22;1.30;;;0.90;;
7817;SDS011;3954;52.624;9.212;2023-04-03T12:44:53;2.33;;;1.37;;
7817;SDS011;3954;52.624;9.212;2023-04-03T12:47:23;3.37;;;1.20;;
7817;SDS011;3954;52.624;9.212;2023-04-03T12:49:51;3.20;;;1.03;;
7817;SDS011;3954;52.624;9.212;2023-04-03T12:52:19;1.83;;;1.20;;
7817;SDS011;3954;52.624;9.212;2023-04-03T12:54:45;2.13;;;1.30;;
7817;SDS011;3954;52.624;9.212;2023-04-03T12:57:15;1.80;;;1.23;;
7817;SDS011;3954;52.624;9.212;2023-04-03T12:59:42;2.07;;;1.20;;
7817;SDS011;3954;52.624;9.212;2023-04-03T13:02:17;1.63;;;1.13;;
7817;SDS011;3954;52.624;9.212;2023-04-03T13:04:46;2.10;;;1.10;;
7817;SDS011;3954;52.624;9.212;2023-04-03T13:07:18;1.20;;;1.10;;
7817;SDS011;3954;52.624;9.212;2023-04-03T13:09:47;1.77;;;1.10;;
7817;SDS011;3954;52.624;9.212;2023-04-03T13:12:20;2.37;;;1.30;;
7817;SDS011;3954;52.624;9.212;2023-04-03T13:14:51;2.00;;;1.20;;
7817;SDS011;3954;52.624;9.212;2023-04-03T13:17:19;1.40;;;0.90;;
7817;SDS011;3954;52.624;9.212;2023-04-03T13:19:46;1.93;;;1.23;;
7817;SDS011;3954;52.624;9.212;2023-04-03T13:22:16;2.63;;;1.33;;
7817;SDS011;3954;52.624;9.212;2023-04-03T13:24:45;3.53;;;1.20;;
7817;SDS011;3954;52.624;9.212;2023-04-03T13:27:12;2.77;;;1.10;;
7817;SDS011;3954;52.624;9.212;2023-04-03T13:29:38;1.37;;;1.00;;
7817;SDS011;3954;52.624;9.212;2023-04-03T13:32:05;2.53;;;1.17;;
7817;SDS011;3954;52.624;9.212;2023-04-03T13:34:37;1.57;;;1.30;;
7817;SDS011;3954;52.624;9.212;2023-04-03T13:37:04;2.67;;;1.23;;
7817;SDS011;3954;52.624;9.212;2023-04-03T13:39:30;2.07;;;1.17;;
7817;SDS011;3954;52.624;9.212;2023-04-03T13:41:57;1.67;;;1.50;;
7817;SDS011;3954;52.624;9.212;2023-04-03T13:44:26;3.70;;;1.10;;
7817;SDS011;3954;52.624;9.212;2023-04-03T13:46:53;4.27;;;0.97;;
7817;SDS011;3954;52.624;9.212;2023-04-03T13:49:20;1.80;;;1.20;;
7817;SDS011;3954;52.624;9.212;2023-04-03T13:51:48;2.20;;;1.33;;
7817;SDS011;3954;52.624;9.212;2023-04-03T13:54:18;1.73;;;1.30;;
7817;SDS011;3954;52.624;9.212;2023-04-03T13:56:44;2.37;;;1.27;;
7817;SDS011;3954;52.624;9.212;2023-04-03T13:59:21;2.07;;;1.10;;
7817;SDS011;3954;52.624;9.212;2023-04-03T14:01:49;2.13;;;1.40;;
7817;SDS011;3954;52.624;9.212;2023-04-03T14:04:19;1.67;;;1.10;;
7817;SDS011;3954;52.624;9.212;2023-04-03T14:06:46;2.17;;;1.20;;
7817;SDS011;3954;52.624;9.212;2023-04-03T14:09:14;1.37;;;1.00;;
7817;SDS011;3954;52.624;9.212;2023-04-03T14:11:41;2.80;;;1.30;;
7817;SDS011;3954;52.624;9.212;2023-04-03T14:14:10;2.90;;;1.40;;
7817;SDS011;3954;52.624;9.212;2023-04-03T14:16:38;1.43;;;1.17;;
7817;SDS011;3954;52.624;9.212;2023-04-03T14:19:05;3.07;;;1.47;;
7817;SDS011;3954;52.624;9.212;2023-04-03T14:21:32;3.20;;;1.60;;
7817;SDS011;3954;52.624;9.212;2023-04-03T14:23:58;2.40;;;1.50;;
7817;SDS011;3954;52.624;9.212;2023-04-03T14:26:28;2.73;;;1.50;;
7817;SDS011;3954;52.624;9.212;2023-04-03T14:28:55;3.90;;;1.67;;
7817;SDS011;3954;52.624;9.212;2023-04-03T14:31:21;2.93;;;1.63;;
7817;SDS011;3954;52.624;9.212;2023-04-03T14:33:47;2.07;;;1.07;;
7817;SDS011;3954;52.624;9.212;2023-04-03T14:36:14;2.60;;;1.30;;
7817;SDS011;3954;52.624;9.212;2023-04-03T14:38:41;3.03;;;1.70;;
7817;SDS011;3954;52.624;9.212;2023-04-03T14:41:07;1.47;;;1.27;;
7817;SDS011;3954;52.624;9.212;2023-04-03T14:43:34;1.80;;;1.13;;
7817;SDS011;3954;52.624;9.212;2023-04-03T14:46:00;3.50;;;1.30;;
7817;SDS011;3954;52.624;9.212;2023-04-03T14:48:27;2.07;;;1.27;;
7817;SDS011;3954;52.624;9.212;2023-04-03T14:50:53;1.60;;;1.20;;
7817;SDS011;3954;52.624;9.212;2023-04-03T14:53:20;1.73;;;1.20;;
7817;SDS011;3954;52.624;9.212;2023-04-03T14:55:51;3.03;;;1.23;;
7817;SDS011;3954;52.624;9.212;2023-04-03T14:58:17;2.20;;;1.43;;
7817;SDS011;3954;52.624;9.212;2023-04-03T15:00:45;1.90;;;1.40;;
7817;SDS011;3954;52.624;9.212;2023-04-03T15:03:13;1.17;;;1.00;;
7817;SDS011;3954;52.624;9.212;2023-04-03T15:05:39;1.93;;;1.10;;
7817;SDS011;3954;52.624;9.212;2023-04-03T15:08:08;1.97;;;1.40;;
7817;SDS011;3954;52.624;9.212;2023-04-03T15:10:37;1.87;;;1.17;;
7817;SDS011;3954;52.624;9.212;2023-04-03T15:13:03;1.40;;;1.27;;
7817;SDS011;3954;52.624;9.212;2023-04-03T15:15:29;1.27;;;1.17;;
7817;SDS011;3954;52.624;9.212;2023-04-03T15:17:57;3.17;;;1.17;;
7817;SDS011;3954;52.624;9.212;2023-04-03T15:20:23;2.23;;;1.33;;
7817;SDS011;3954;52.624;9.212;2023-04-03T15:22:50;1.67;;;1.30;;
7817;SDS011;3954;52.624;9.212;2023-04-03T15:25:16;2.27;;;1.27;;
7817;SDS011;3954;52.624;9.212;2023-04-03T15:27:43;2.60;;;1.30;;
7817;SDS011;3954;52.624;9.212;2023-04-03T15:30:11;1.93;;;1.10;;